Time;durP1;ratioP1;P1;durP2;ratioP2;P2;SDS_P1;SDS_P2;PMS_P1;PMS_P2;Temp;Humidity;BMP_temperature;BMP_pressure;BME280_temperature;BME280_humidity;BME280_pressure;Samples;Min_cycle;Max_cycle;Signal;HPM_P1;HPM_P2
2021/06/18 00:02:24;;;;;;;6.88;4.35;;;;;;;20.52;89.88;100407.84;5220560;28;20028;-78
2021/06/18 00:04:55;;;;;;;7.00;3.85;;;;;;;20.58;89.41;100407.34;5218005;28;20025;-78
2021/06/18 00:07:25;;;;;;;7.03;4.28;;;;;;;20.45;90.33;100401.31;5210065;28;20361;-77
2021/06/18 00:09:55;;;;;;;10.07;4.00;;;;;;;20.44;90.79;100404.91;5213813;28;20025;-78
2021/06/18 00:12:26;;;;;;;8.43;4.27;;;;;;;20.40;90.36;100395.50;5210277;28;20291;-77
2021/06/18 00:14:59;;;;;;;7.57;4.28;;;;;;;20.41;90.49;100391.03;5209446;28;20638;-77
2021/06/18 00:17:29;;;;;;;5.68;3.88;;;;;;;20.53;89.21;100401.56;5213533;28;20037;-77
2021/06/18 00:20:00;;;;;;;7.68;3.85;;;;;;;20.48;90.33;100400.22;5209860;28;20029;-77
2021/06/18 00:22:30;;;;;;;7.25;4.07;;;;;;;20.49;89.73;100400.09;5209225;28;20502;-78
2021/06/18 00:25:02;;;;;;;7.38;4.28;;;;;;;20.40;90.47;100397.31;5213900;28;20021;-78
2021/06/18 00:27:32;;;;;;;9.32;3.83;;;;;;;20.35;89.62;100397.69;5213219;28;20572;-78
2021/06/18 00:30:05;;;;;;;8.20;4.07;;;;;;;20.28;90.31;100385.84;5210708;28;20151;-78
2021/06/18 00:32:35;;;;;;;5.47;3.92;;;;;;;20.13;91.21;100396.81;5213643;28;20517;-78
2021/06/18 00:35:06;;;;;;;6.13;3.97;;;;;;;20.21;90.84;100389.09;5207133;28;20061;-78
2021/06/18 00:37:37;;;;;;;7.40;3.97;;;;;;;20.36;90.01;100395.88;5203889;28;20037;-78
2021/06/18 00:40:08;;;;;;;7.10;4.88;;;;;;;20.39;89.93;100388.50;5213183;28;20047;-78
2021/06/18 00:42:38;;;;;;;6.93;3.83;;;;;;;20.47;88.99;100391.41;5211562;28;20029;-77
2021/06/18 00:45:09;;;;;;;8.27;4.00;;;;;;;20.56;87.89;100377.41;5210914;28;20029;-78
2021/06/18 00:47:46;;;;;;;7.88;3.63;;;;;;;20.54;88.63;100387.31;5214391;28;20032;-78
2021/06/18 00:50:18;;;;;;;7.72;3.58;;;;;;;20.56;88.21;100384.50;5218902;28;20024;-78
2021/06/18 00:52:48;;;;;;;8.63;4.00;;;;;;;20.49;88.02;100392.13;5213123;28;20052;-78
2021/06/18 00:55:18;;;;;;;8.45;3.65;;;;;;;20.53;87.29;100393.59;5206885;28;20021;-78
2021/06/18 00:57:50;;;;;;;7.45;4.00;;;;;;;20.57;87.46;100387.06;5212139;28;20080;-78
2021/06/18 01:00:21;;;;;;;6.72;3.60;;;;;;;20.65;87.79;100389.09;5212207;28;20017;-78
2021/06/18 01:02:52;;;;;;;5.25;3.72;;;;;;;20.67;87.26;100382.69;5217481;28;20051;-78
2021/06/18 01:05:23;;;;;;;5.30;3.58;;;;;;;20.69;87.06;100386.91;5215821;28;20041;-78
2021/06/18 01:08:08;;;;;;;5.30;3.38;;;;;;;20.67;87.26;100383.53;5216712;28;20111;-78
2021/06/18 01:10:58;;;;;;;5.93;3.38;;;;;;;20.64;87.04;100385.59;5241697;28;20028;-78
2021/06/18 01:13:48;;;;;;;7.18;3.78;;;;;;;20.71;86.86;100381.50;5213124;28;20030;-77
2021/06/18 01:16:43;;;;;;;4.82;3.65;;;;;;;20.64;86.93;100371.47;5213221;28;20076;-78
2021/06/18 01:19:23;;;;;;;7.00;3.60;;;;;;;20.52;87.86;100372.44;5214817;28;20029;-78
2021/06/18 01:21:56;;;;;;;7.45;3.90;;;;;;;20.39;88.46;100377.91;5211811;28;20116;-78
2021/06/18 01:24:46;;;;;;;6.30;4.03;;;;;;;20.43;88.82;100368.72;5215431;28;20041;-78
2021/06/18 01:27:28;;;;;;;5.22;3.53;;;;;;;20.63;87.20;100370.63;5217934;28;20031;-78
2021/06/18 01:30:07;;;;;;;5.85;3.38;;;;;;;20.63;87.19;100369.78;5212043;28;21341;-78
2021/06/18 01:32:52;;;;;;;7.13;3.85;;;;;;;20.50;87.85;100374.38;5212611;28;20037;-78
2021/06/18 01:35:25;;;;;;;6.15;3.95;;;;;;;20.31;89.10;100374.97;5214671;28;20044;-77
2021/06/18 01:37:59;;;;;;;6.22;3.95;;;;;;;20.53;87.21;100369.69;5213613;28;20021;-78
2021/06/18 01:40:31;;;;;;;7.50;4.20;;;;;;;20.21;89.90;100368.72;5215869;28;20021;-77
2021/06/18 01:43:05;;;;;;;7.35;4.43;;;;;;;20.07;89.42;100374.25;5215524;28;20051;-77
2021/06/18 01:45:37;;;;;;;9.30;4.80;;;;;;;19.82;90.64;100365.63;5211515;28;20152;-77
2021/06/18 01:48:09;;;;;;;7.20;4.47;;;;;;;19.76;91.23;100366.94;5215502;28;20098;-77
2021/06/18 01:50:41;;;;;;;7.50;4.35;;;;;;;19.98;90.28;100366.13;5216951;28;20021;-77
2021/06/18 01:53:17;;;;;;;7.05;4.35;;;;;;;20.00;90.15;100366.84;5212283;28;20391;-77
2021/06/18 01:55:49;;;;;;;5.45;3.70;;;;;;;20.13;89.16;100365.81;5214439;28;20071;-77
2021/06/18 01:58:21;;;;;;;7.15;3.83;;;;;;;20.14;88.95;100364.84;5211999;28;20026;-77
2021/06/18 02:00:52;;;;;;;8.43;4.35;;;;;;;19.81;90.31;100366.59;5221012;28;20021;-77
2021/06/18 02:03:26;;;;;;;6.80;3.70;;;;;;;19.97;89.67;100361.78;5209825;28;20060;-77
2021/06/18 02:06:00;;;;;;;6.00;4.05;;;;;;;20.07;89.10;100353.03;5213302;28;20414;-77
2021/06/18 02:08:30;;;;;;;7.35;4.20;;;;;;;20.04;89.38;100361.22;5214555;28;20037;-77
2021/06/18 02:11:03;;;;;;;9.65;4.80;;;;;;;19.82;90.60;100350.53;5217230;28;20032;-77
2021/06/18 02:13:34;;;;;;;8.15;4.30;;;;;;;19.79;90.31;100358.72;5217423;28;20400;-77
2021/06/18 02:16:06;;;;;;;6.85;4.20;;;;;;;19.81;90.35;100362.09;5214022;28;20032;-77
2021/06/18 02:18:38;;;;;;;8.55;4.57;;;;;;;19.71;90.17;100361.13;5216898;28;20049;-77
2021/06/18 02:21:09;;;;;;;7.10;4.50;;;;;;;19.62;91.24;100361.81;5221845;28;20071;-77
2021/06/18 02:23:41;;;;;;;7.95;4.32;;;;;;;19.79;90.24;100358.72;5214586;28;20060;-77
2021/06/18 02:26:12;;;;;;;8.63;4.43;;;;;;;19.64;90.97;100364.38;5216247;28;20083;-77
2021/06/18 02:28:43;;;;;;;6.82;4.30;;;;;;;19.85;89.61;100376.84;5216347;28;20037;-78
2021/06/18 02:31:14;;;;;;;10.48;4.38;;;;;;;19.90;88.81;100395.03;5213226;28;20487;-77
2021/06/18 02:33:45;;;;;;;12.35;4.47;;;;;;;19.97;88.53;100397.09;5213718;28;20049;-78
2021/06/18 02:36:16;;;;;;;6.75;4.25;;;;;;;20.14;88.04;100394.03;5217244;28;20069;-77
2021/06/18 02:38:48;;;;;;;9.40;4.25;;;;;;;20.17;88.32;100407.09;5212658;28;20033;-77
2021/06/18 02:41:18;;;;;;;7.20;4.05;;;;;;;20.49;86.63;100399.25;5217187;28;20025;-77
2021/06/18 02:43:49;;;;;;;8.75;4.20;;;;;;;20.40;87.85;100392.84;5217093;28;20025;-77
2021/06/18 02:46:36;;;;;;;8.18;4.07;;;;;;;20.63;86.68;100406.97;5217331;28;20025;-77
2021/06/18 02:49:11;;;;;;;9.48;4.10;;;;;;;20.65;86.31;100403.22;5217804;28;20032;-77
2021/06/18 02:51:52;;;;;;;11.63;4.25;;;;;;;20.55;87.06;100393.44;5213679;28;20108;-77
2021/06/18 02:54:31;;;;;;;9.43;4.55;;;;;;;20.64;86.85;100425.44;5213331;28;20033;-78
2021/06/18 02:57:07;;;;;;;7.97;4.53;;;;;;;20.65;86.83;100413.84;5212488;28;20025;-77
2021/06/18 02:59:57;;;;;;;8.55;4.38;;;;;;;20.59;86.81;100406.38;5212797;28;20398;-77
2021/06/18 03:02:33;;;;;;;10.05;4.53;;;;;;;20.48;88.41;100406.38;5216281;28;20037;-78
2021/06/18 03:05:05;;;;;;;7.63;4.50;;;;;;;20.43;88.66;100419.16;5213553;28;20060;-77
2021/06/18 03:07:37;;;;;;;7.35;4.20;;;;;;;20.54;87.84;100411.22;5212197;28;20030;-77
2021/06/18 03:10:09;;;;;;;9.60;4.75;;;;;;;20.49;87.85;100402.75;5212570;28;20082;-77
2021/06/18 03:12:42;;;;;;;8.27;4.88;;;;;;;20.23;89.78;100408.41;5211327;28;20027;-77
2021/06/18 03:15:14;;;;;;;7.05;4.40;;;;;;;20.10;90.87;100413.81;5214769;28;20701;-77
2021/06/18 03:17:45;;;;;;;8.77;4.50;;;;;;;20.31;89.73;100413.97;5214856;28;20552;-78
2021/06/18 03:20:21;;;;;;;9.77;5.00;;;;;;;20.18;90.69;100410.56;5213920;28;20056;-77
2021/06/18 03:22:57;;;;;;;10.55;4.97;;;;;;;19.86;93.26;100415.69;5220445;28;20032;-76
2021/06/18 03:25:29;;;;;;;7.75;4.30;;;;;;;19.97;91.76;100417.50;5210896;28;20116;-77
2021/06/18 03:28:01;;;;;;;16.75;5.35;;;;;;;19.62;92.37;100411.38;5213511;28;20017;-77
2021/06/18 03:30:33;;;;;;;9.85;4.93;;;;;;;19.66;92.90;100419.00;5217362;28;20029;-78
2021/06/18 03:33:04;;;;;;;11.90;4.93;;;;;;;19.83;90.99;100410.63;5214422;28;20044;-77
2021/06/18 03:35:36;;;;;;;12.40;5.00;;;;;;;19.70;92.47;100417.78;5213732;28;20025;-78
2021/06/18 03:38:07;;;;;;;12.38;4.50;;;;;;;19.95;91.30;100420.25;5214450;28;20427;-76
2021/06/18 03:40:39;;;;;;;12.45;4.97;;;;;;;19.86;92.57;100412.16;5213463;28;20029;-77
2021/06/18 03:43:11;;;;;;;8.27;4.57;;;;;;;20.12;92.02;100406.59;5215777;28;20095;-77
2021/06/18 03:45:50;;;;;;;9.40;4.78;;;;;;;20.03;92.03;100419.72;5213602;28;20056;-78
2021/06/18 03:48:21;;;;;;;10.90;4.70;;;;;;;19.96;92.63;100419.31;5217516;28;20100;-77
2021/06/18 03:50:51;;;;;;;10.10;4.82;;;;;;;19.69;94.29;100410.81;5213271;28;20027;-77
2021/06/18 03:53:22;;;;;;;15.57;5.00;;;;;;;19.62;92.45;100412.22;5210541;28;20017;-77
2021/06/18 03:55:52;;;;;;;14.77;5.10;;;;;;;19.81;91.63;100415.16;5212749;28;20048;-77
2021/06/18 03:58:25;;;;;;;9.70;4.60;;;;;;;19.53;93.84;100410.25;5208670;28;20032;-77
2021/06/18 04:00:57;;;;;;;8.70;4.60;;;;;;;19.82;91.68;100408.88;5222572;28;20479;-78
2021/06/18 04:03:28;;;;;;;12.15;4.18;;;;;;;19.92;92.48;100411.72;5216663;28;20033;-78
2021/06/18 04:06:00;;;;;;;7.85;4.47;;;;;;;19.77;93.94;100411.06;5216779;28;20097;-78
2021/06/18 04:08:33;;;;;;;9.23;4.45;;;;;;;19.63;94.20;100415.72;5216326;28;20561;-77
2021/06/18 04:11:06;;;;;;;10.02;4.47;;;;;;;19.77;93.94;100412.88;5212957;28;20028;-78
2021/06/18 04:13:36;;;;;;;7.85;4.47;;;;;;;20.05;92.71;100416.00;5216499;28;20053;-78
2021/06/18 04:16:08;;;;;;;6.88;4.85;;;;;;;20.14;93.39;100420.56;5215030;28;20067;-78
2021/06/18 04:18:45;;;;;;;9.38;4.78;;;;;;;20.26;92.39;100418.81;5213184;28;20147;-77
2021/06/18 04:21:20;;;;;;;9.82;5.13;;;;;;;20.03;94.60;100420.56;5212457;28;20033;-77
2021/06/18 04:23:50;;;;;;;10.45;5.68;;;;;;;19.79;99.23;100419.75;5214768;28;20105;-78
2021/06/18 04:26:23;;;;;;;9.80;4.95;;;;;;;20.05;97.30;100431.06;5208375;28;20611;-78
2021/06/18 04:28:53;;;;;;;11.68;5.20;;;;;;;20.11;97.20;100428.78;5216328;28;20025;-78
2021/06/18 04:31:23;;;;;;;9.63;5.40;;;;;;;20.18;97.79;100422.06;5220721;28;20029;-78
2021/06/18 04:33:54;;;;;;;11.50;5.38;;;;;;;20.57;95.24;100424.25;5217076;28;20032;-78
2021/06/18 04:36:24;;;;;;;7.93;5.50;;;;;;;20.69;95.47;100428.59;5215241;28;21350;-78
2021/06/18 04:38:54;;;;;;;11.60;5.70;;;;;;;21.00;93.76;100425.19;5218479;28;20337;-78
2021/06/18 04:41:26;;;;;;;7.13;4.70;;;;;;;22.82;86.99;100412.13;5217159;28;20079;-78
2021/06/18 04:43:56;;;;;;;9.13;4.65;;;;;;;24.45;79.14;100420.03;5210485;28;20033;-78
2021/06/18 04:46:26;;;;;;;8.25;4.80;;;;;;;25.47;77.49;100415.31;5210177;28;20040;-78
2021/06/18 04:48:57;;;;;;;7.57;4.43;;;;;;;26.27;75.22;100405.25;5217711;28;20279;-79
2021/06/18 04:51:27;;;;;;;10.98;4.30;;;;;;;27.00;70.29;100409.00;5217889;28;20044;-79
2021/06/18 04:53:57;;;;;;;6.93;3.75;;;;;;;28.73;66.68;100413.94;5214241;28;20025;-79
2021/06/18 04:56:28;;;;;;;14.23;4.47;;;;;;;28.53;66.99;100416.19;5212473;28;20021;-79
2021/06/18 04:58:59;;;;;;;5.97;3.97;;;;;;;29.11;65.09;100408.56;5208333;28;20271;-78
2021/06/18 05:01:29;;;;;;;7.05;3.60;;;;;;;29.89;63.32;100408.22;5210501;28;20029;-79
2021/06/18 05:03:59;;;;;;;6.32;4.13;;;;;;;28.57;65.67;100412.16;5218634;28;20029;-79
2021/06/18 05:06:30;;;;;;;7.10;4.18;;;;;;;28.97;64.37;100415.56;5222335;28;20029;-79
2021/06/18 05:09:00;;;;;;;6.10;4.13;;;;;;;29.70;63.53;100413.25;5217281;28;20028;-79
2021/06/18 05:11:30;;;;;;;4.77;3.60;;;;;;;31.69;58.90;100408.28;5214934;28;20272;-78
2021/06/18 05:14:01;;;;;;;10.43;4.05;;;;;;;31.42;58.10;100417.13;5210541;28;20279;-79
2021/06/18 05:16:31;;;;;;;10.27;4.55;;;;;;;30.24;61.32;100422.94;5217624;28;20032;-79
2021/06/18 05:19:01;;;;;;;8.05;4.35;;;;;;;30.77;61.03;100420.03;5218557;28;20028;-78
2021/06/18 05:21:32;;;;;;;7.37;4.23;;;;;;;31.13;59.89;100409.09;5215045;28;20578;-78
2021/06/18 05:24:04;;;;;;;7.03;3.88;;;;;;;32.47;57.85;100419.78;5215204;28;20059;-79
2021/06/18 05:26:35;;;;;;;5.78;4.10;;;;;;;33.26;54.30;100416.47;5214830;28;20572;-79
2021/06/18 05:29:05;;;;;;;5.85;4.18;;;;;;;32.26;56.64;100419.00;5215491;28;20494;-78
2021/06/18 05:31:36;;;;;;;6.53;4.40;;;;;;;32.25;56.66;100418.16;5215225;28;20025;-79
2021/06/18 05:34:06;;;;;;;7.45;4.72;;;;;;;31.37;59.74;100416.84;5218184;28;20279;-79
2021/06/18 05:36:36;;;;;;;7.20;4.10;;;;;;;31.95;57.29;100418.50;5222386;28;20029;-79
2021/06/18 05:39:06;;;;;;;8.25;4.25;;;;;;;33.11;56.46;100421.22;5218924;28;20149;-78
2021/06/18 05:41:37;;;;;;;6.73;4.20;;;;;;;32.35;58.41;100415.94;5219141;28;20025;-78
2021/06/18 05:44:08;;;;;;;7.30;4.70;;;;;;;32.80;56.54;100411.88;5216781;28;20032;-78
2021/06/18 05:46:38;;;;;;;9.75;5.72;;;;;;;31.83;57.29;100420.06;5218348;28;20084;-78
2021/06/18 05:49:08;;;;;;;7.57;5.22;;;;;;;30.23;61.11;100421.28;5217303;28;20029;-78
2021/06/18 05:51:39;;;;;;;10.63;6.23;;;;;;;29.66;62.42;100420.03;5218236;28;20057;-78
2021/06/18 05:54:10;;;;;;;10.75;6.00;;;;;;;28.46;67.05;100428.63;5214797;28;20279;-78
2021/06/18 05:56:41;;;;;;;7.95;5.65;;;;;;;28.68;67.32;100430.59;5216474;28;20059;-78
2021/06/18 05:59:11;;;;;;;6.50;5.38;;;;;;;28.27;68.88;100425.47;5216509;28;20021;-78
2021/06/18 06:01:41;;;;;;;9.83;5.90;;;;;;;28.32;69.70;100432.03;5215788;28;20047;-77
2021/06/18 06:04:12;;;;;;;10.77;6.25;;;;;;;28.59;68.65;100426.25;5213963;28;20276;-78
2021/06/18 06:06:42;;;;;;;11.70;6.13;;;;;;;27.98;70.57;100420.59;5225014;28;20052;-77
2021/06/18 06:09:12;;;;;;;11.93;5.80;;;;;;;28.66;67.81;100424.53;5215152;28;20286;-78
2021/06/18 06:11:43;;;;;;;11.60;6.40;;;;;;;28.74;68.58;100421.84;5217111;28;20762;-77
2021/06/18 06:14:20;;;;;;;10.23;6.50;;;;;;;28.72;69.11;100426.56;5214983;28;20271;-78
2021/06/18 06:16:50;;;;;;;8.13;5.90;;;;;;;28.48;71.12;100429.31;5216741;28;20029;-78
2021/06/18 06:19:20;;;;;;;10.33;5.83;;;;;;;29.29;68.24;100419.91;5213842;28;20438;-78
2021/06/18 06:21:51;;;;;;;7.22;4.80;;;;;;;29.06;68.07;100419.88;5216665;28;20311;-77
2021/06/18 06:24:21;;;;;;;10.25;5.20;;;;;;;29.56;66.85;100414.06;5215245;28;20096;-77
2021/06/18 06:26:52;;;;;;;11.37;5.27;;;;;;;29.75;65.49;100410.88;5217291;28;20029;-77
2021/06/18 06:29:22;;;;;;;8.18;4.97;;;;;;;28.97;69.38;100403.94;5215708;28;20366;-77
2021/06/18 06:31:52;;;;;;;7.57;5.35;;;;;;;28.96;68.24;100415.72;5211721;28;20648;-77
2021/06/18 06:34:22;;;;;;;11.10;4.83;;;;;;;29.78;66.04;100400.56;5213883;28;20031;-78
2021/06/18 06:36:53;;;;;;;13.00;4.78;;;;;;;28.85;69.84;100410.69;5215493;28;20840;-78
2021/06/18 06:39:23;;;;;;;8.93;4.80;;;;;;;28.51;71.46;100418.19;5210570;28;20025;-78
2021/06/18 06:41:53;;;;;;;9.40;4.80;;;;;;;29.51;65.32;100419.97;5214938;28;20104;-77
2021/06/18 06:44:24;;;;;;;12.30;4.78;;;;;;;30.62;64.30;100417.31;5211075;28;20291;-78
2021/06/18 06:46:54;;;;;;;6.73;4.83;;;;;;;30.84;62.91;100428.00;5213866;28;20104;-78
2021/06/18 06:49:27;;;;;;;8.23;5.13;;;;;;;31.38;60.88;100423.94;5212868;28;20801;-77
2021/06/18 06:51:57;;;;;;;6.28;4.15;;;;;;;31.43;62.97;100418.81;5212558;28;20025;-78
2021/06/18 06:54:27;;;;;;;5.78;4.50;;;;;;;31.96;59.98;100421.03;5213837;28;20026;-78
2021/06/18 06:56:58;;;;;;;13.33;4.77;;;;;;;31.43;60.43;100421.50;5216634;28;20055;-78
2021/06/18 06:59:28;;;;;;;9.45;4.78;;;;;;;31.51;62.29;100423.25;5215638;28;20271;-78
2021/06/18 07:01:58;;;;;;;8.60;4.50;;;;;;;31.97;62.60;100428.09;5213013;28;20029;-78
2021/06/18 07:04:29;;;;;;;6.67;4.00;;;;;;;32.00;62.19;100435.81;5215831;28;20298;-78
2021/06/18 07:07:00;;;;;;;9.32;3.60;;;;;;;32.41;61.72;100415.16;5216371;28;20323;-78
2021/06/18 07:09:32;;;;;;;9.85;4.68;;;;;;;31.52;60.68;100433.03;5214518;28;20040;-78
2021/06/18 07:12:07;;;;;;;7.70;4.40;;;;;;;31.08;64.42;100419.63;5214060;28;20055;-78
2021/06/18 07:14:39;;;;;;;6.97;4.47;;;;;;;31.40;62.48;100421.06;5214440;28;20395;-78
2021/06/18 07:17:10;;;;;;;7.32;4.20;;;;;;;31.16;64.53;100426.81;5214347;28;20028;-78
2021/06/18 07:19:40;;;;;;;7.10;4.30;;;;;;;33.50;57.59;100426.78;5214268;28;20025;-78
2021/06/18 07:22:10;;;;;;;6.87;4.27;;;;;;;32.18;59.89;100427.28;5214005;28;20768;-78
2021/06/18 07:24:40;;;;;;;9.75;4.30;;;;;;;33.78;56.49;100427.47;5215298;28;20072;-78
2021/06/18 07:27:12;;;;;;;9.90;3.77;;;;;;;34.31;56.47;100421.06;5214634;28;20030;-78
2021/06/18 07:29:43;;;;;;;7.80;3.47;;;;;;;33.65;56.58;100422.00;5213475;28;20104;-78
2021/06/18 07:32:13;;;;;;;8.20;3.83;;;;;;;34.20;55.40;100422.50;5214557;28;20033;-78
2021/06/18 07:34:44;;;;;;;10.07;3.30;;;;;;;33.99;57.07;100428.13;5214666;28;20025;-78
2021/06/18 07:37:15;;;;;;;5.72;3.45;;;;;;;34.46;56.86;100421.63;5213285;28;20029;-78
2021/06/18 07:39:45;;;;;;;7.10;3.63;;;;;;;34.84;55.93;100418.03;5216029;28;20495;-78
2021/06/18 07:42:16;;;;;;;5.77;3.10;;;;;;;35.70;55.17;100415.56;5216081;28;20171;-78
2021/06/18 07:44:46;;;;;;;7.53;4.00;;;;;;;35.81;52.94;100424.91;5217947;28;20280;-79
2021/06/18 07:47:16;;;;;;;6.67;3.47;;;;;;;35.93;54.03;100423.16;5217587;28;20860;-80
2021/06/18 07:49:47;;;;;;;8.43;3.70;;;;;;;35.96;54.00;100419.97;5219282;28;20322;-80
2021/06/18 07:52:17;;;;;;;5.30;3.27;;;;;;;35.88;52.69;100420.22;5216306;28;20056;-78
2021/06/18 07:54:51;;;;;;;7.10;4.00;;;;;;;34.34;55.12;100424.16;5218469;28;20022;-77
2021/06/18 07:57:21;;;;;;;5.00;2.83;;;;;;;34.71;53.28;100419.97;5219024;28;20501;-79
2021/06/18 07:59:52;;;;;;;6.75;3.35;;;;;;;33.51;55.96;100414.88;5213922;28;20108;-78
2021/06/18 08:02:23;;;;;;;6.15;3.15;;;;;;;35.88;53.12;100417.50;5222891;28;20044;-79
2021/06/18 08:04:53;;;;;;;5.47;3.22;;;;;;;36.74;51.92;100417.38;5218521;28;20075;-78
2021/06/18 08:07:23;;;;;;;5.00;3.25;;;;;;;37.59;53.05;100415.25;5218310;28;20028;-79
2021/06/18 08:09:54;;;;;;;8.30;3.80;;;;;;;35.09;55.69;100410.84;5215948;28;20116;-79
2021/06/18 08:12:24;;;;;;;4.80;3.30;;;;;;;35.33;57.45;100405.50;5206575;28;20031;-80
2021/06/18 08:14:54;;;;;;;8.63;3.38;;;;;;;37.25;52.27;100405.00;5226313;28;20029;-79
2021/06/18 08:17:25;;;;;;;6.67;3.33;;;;;;;35.57;55.55;100407.44;5222645;28;20040;-79
2021/06/18 08:19:55;;;;;;;8.93;3.53;;;;;;;35.64;57.28;100402.81;5214641;28;20020;-78
2021/06/18 08:22:26;;;;;;;5.87;2.87;;;;;;;36.89;51.29;100406.09;5213664;28;20299;-79
2021/06/18 08:24:56;;;;;;;6.97;3.30;;;;;;;36.58;51.25;100406.22;5220923;28;20378;-79
2021/06/18 08:27:26;;;;;;;7.10;2.83;;;;;;;37.65;49.03;100405.31;5215614;28;20026;-80
2021/06/18 08:29:57;;;;;;;8.10;3.17;;;;;;;38.10;48.74;100406.50;5214417;28;20299;-80
2021/06/18 08:32:27;;;;;;;6.68;2.90;;;;;;;38.11;49.01;100399.97;5218640;28;20025;-80
2021/06/18 08:34:57;;;;;;;6.13;3.00;;;;;;;38.57;48.59;100394.53;5219220;28;20013;-79
2021/06/18 08:37:28;;;;;;;4.77;3.00;;;;;;;36.96;52.10;100399.50;5215059;28;20240;-80
2021/06/18 08:39:58;;;;;;;7.78;3.35;;;;;;;38.15;51.26;100392.94;5213728;28;20036;-79
2021/06/18 08:42:29;;;;;;;10.23;3.25;;;;;;;39.20;47.55;100392.63;5214291;28;20037;-78
2021/06/18 08:44:59;;;;;;;4.70;2.80;;;;;;;39.01;49.09;100388.38;5215509;28;20033;-79
2021/06/18 08:47:30;;;;;;;8.07;3.20;;;;;;;36.84;52.47;100392.31;5214414;28;20029;-79
2021/06/18 08:50:00;;;;;;;7.25;2.80;;;;;;;38.11;49.93;100378.13;5215822;28;20668;-80
2021/06/18 08:52:30;;;;;;;4.88;2.90;;;;;;;38.06;49.47;100384.28;5215524;28;20445;-79
2021/06/18 08:55:00;;;;;;;6.10;3.27;;;;;;;38.09;49.14;100382.97;5217309;28;20021;-80
2021/06/18 08:57:31;;;;;;;6.10;2.93;;;;;;;36.85;51.46;100386.63;5219211;28;20082;-79
2021/06/18 09:00:03;;;;;;;5.03;2.73;;;;;;;38.34;48.67;100381.72;5215342;28;20083;-80
2021/06/18 09:02:33;;;;;;;7.35;2.80;;;;;;;39.25;48.51;100376.31;5218860;28;20704;-80
2021/06/18 09:05:06;;;;;;;7.10;3.10;;;;;;;37.44;47.87;100381.25;5215965;28;20025;-80
2021/06/18 09:07:59;;;;;;;4.93;2.78;;;;;;;39.61;45.27;100377.59;5215652;28;20025;-79
2021/06/18 09:10:36;;;;;;;6.45;2.90;;;;;;;38.25;46.99;100379.53;5218334;28;20052;-79
2021/06/18 09:13:23;;;;;;;4.70;2.90;;;;;;;38.86;46.00;100377.13;5220167;28;20364;-80
2021/06/18 09:15:56;;;;;;;4.72;2.78;;;;;;;37.60;48.78;100375.97;5222100;28;20086;-78
2021/06/18 09:18:32;;;;;;;6.75;2.90;;;;;;;38.03;49.78;100376.56;5217769;28;20037;-80
2021/06/18 09:21:02;;;;;;;5.82;2.90;;;;;;;37.32;52.68;100373.03;5219158;28;20028;-80
2021/06/18 09:23:36;;;;;;;3.97;2.50;;;;;;;38.54;47.11;100373.97;5219539;28;20455;-80
2021/06/18 09:26:25;;;;;;;4.45;2.50;;;;;;;37.98;47.15;100378.34;5223853;28;20029;-78
2021/06/18 09:29:10;;;;;;;4.75;2.50;;;;;;;39.06;46.59;100367.44;5218239;28;20053;-79
2021/06/18 09:31:51;;;;;;;5.60;2.75;;;;;;;39.86;46.50;100374.44;5217061;28;20021;-79
2021/06/18 09:37:29;;;;;;;5.43;2.60;;;;;;;37.44;48.94;100381.25;5220845;28;20057;-80
2021/06/18 09:40:08;;;;;;;4.55;2.70;;;;;;;37.27;49.87;100378.31;5218089;28;20060;-78
2021/06/18 09:43:01;;;;;;;3.65;2.50;;;;;;;37.98;49.14;100381.06;5222293;28;20052;-80
2021/06/18 09:45:33;;;;;;;10.93;2.90;;;;;;;37.58;48.34;100377.28;5218469;28;20029;-80
2021/06/18 09:48:11;;;;;;;3.50;2.40;;;;;;;38.96;48.59;100375.41;5219835;28;20102;-80
2021/06/18 09:50:49;;;;;;;5.00;2.60;;;;;;;39.88;46.05;100372.28;5217980;28;20052;-79
2021/06/18 09:53:22;;;;;;;5.45;2.78;;;;;;;38.88;48.64;100364.88;5222429;28;20028;-80
2021/06/18 09:56:08;;;;;;;5.65;2.85;;;;;;;38.53;50.45;100366.00;5224009;28;20048;-79
2021/06/18 09:58:39;;;;;;;4.15;2.70;;;;;;;38.68;46.64;100360.84;5219381;28;20026;-80
2021/06/18 10:01:32;;;;;;;7.88;3.13;;;;;;;38.89;47.29;100365.69;5219056;28;20082;-80
2021/06/18 10:04:07;;;;;;;5.85;2.70;;;;;;;38.25;50.18;100361.22;5217549;28;20584;-80
2021/06/18 10:06:40;;;;;;;5.90;2.88;;;;;;;37.95;52.00;100365.97;5218419;28;20487;-79
2021/06/18 10:09:15;;;;;;;4.82;3.20;;;;;;;37.77;51.68;100359.75;5219301;28;20044;-79
2021/06/18 10:11:46;;;;;;;5.55;2.90;;;;;;;36.80;52.47;100361.94;5213657;28;20056;-79
2021/06/18 10:14:16;;;;;;;6.28;3.25;;;;;;;36.48;51.63;100357.69;5218319;28;20029;-79
2021/06/18 10:16:47;;;;;;;5.87;3.30;;;;;;;36.15;56.27;100353.66;5215990;28;20513;-79
2021/06/18 10:19:17;;;;;;;4.50;3.17;;;;;;;34.79;58.36;100349.91;5218605;28;20358;-78
2021/06/18 10:21:56;;;;;;;10.15;3.83;;;;;;;34.97;58.55;100354.63;5216174;28;20029;-78
2021/06/18 10:24:34;;;;;;;4.32;3.20;;;;;;;35.13;54.83;100354.97;5220351;28;20434;-79
2021/06/18 10:27:08;;;;;;;5.88;3.92;;;;;;;35.17;56.87;100354.38;5221932;28;20036;-79
2021/06/18 10:29:41;;;;;;;6.45;3.70;;;;;;;34.93;55.84;100356.13;5218153;28;20052;-79
2021/06/18 10:32:26;;;;;;;5.50;3.70;;;;;;;35.63;53.16;100346.75;5214998;28;20029;-79
2021/06/18 10:34:58;;;;;;;5.40;3.55;;;;;;;35.14;54.82;100337.59;5217053;28;20021;-79
2021/06/18 10:37:31;;;;;;;9.07;3.90;;;;;;;34.75;56.74;100335.09;5218975;28;20037;-79
2021/06/18 10:40:11;;;;;;;9.18;3.60;;;;;;;34.86;54.95;100341.75;5217713;28;20025;-78
2021/06/18 10:43:08;;;;;;;6.95;3.60;;;;;;;34.62;57.40;100342.41;5217259;28;20029;-78
2021/06/18 10:45:57;;;;;;;5.60;3.80;;;;;;;35.05;56.11;100334.31;5218316;28;20389;-79
2021/06/18 10:48:46;;;;;;;7.95;4.00;;;;;;;34.95;56.85;100335.84;5215897;28;20059;-79
2021/06/18 10:51:28;;;;;;;8.73;4.45;;;;;;;35.18;58.68;100337.00;5210944;28;20076;-78
2021/06/18 10:54:04;;;;;;;8.40;4.30;;;;;;;35.04;56.54;100338.09;5215167;28;20060;-79
2021/06/18 10:56:54;;;;;;;7.53;4.63;;;;;;;34.10;58.93;100337.09;5215782;28;20032;-79
2021/06/18 10:59:39;;;;;;;13.75;4.97;;;;;;;34.00;59.02;100329.38;5218640;28;20039;-77
2021/06/18 11:02:27;;;;;;;7.13;4.80;;;;;;;33.92;59.62;100337.75;5217180;28;20033;-79
2021/06/18 11:05:02;;;;;;;6.20;4.47;;;;;;;34.57;61.39;100332.22;5215353;28;20063;-79
2021/06/18 11:07:38;;;;;;;7.03;4.47;;;;;;;34.69;62.21;100329.69;5217127;28;20040;-78
2021/06/18 11:10:27;;;;;;;9.57;4.40;;;;;;;34.47;58.56;100325.53;5216311;28;20040;-78
2021/06/18 11:13:07;;;;;;;6.88;4.00;;;;;;;34.25;61.20;100325.00;5215470;28;20090;-79
2021/06/18 11:15:40;;;;;;;6.80;4.10;;;;;;;34.11;60.75;100326.03;5217343;28;20020;-77
2021/06/18 11:18:17;;;;;;;7.78;4.00;;;;;;;34.28;63.51;100318.28;5215262;28;20029;-78
2021/06/18 11:20:50;;;;;;;6.90;3.85;;;;;;;34.36;64.25;100318.91;5212911;28;20021;-77
2021/06/18 11:23:29;;;;;;;7.65;3.80;;;;;;;34.50;62.75;100312.38;5215821;28;20028;-79
2021/06/18 11:26:01;;;;;;;6.28;3.70;;;;;;;34.61;64.41;100316.31;5214704;28;20029;-78
2021/06/18 11:28:35;;;;;;;5.75;3.50;;;;;;;34.55;63.67;100315.28;5213545;28;20057;-79
2021/06/18 11:31:07;;;;;;;5.57;3.65;;;;;;;34.56;62.11;100319.69;5216455;28;20025;-77
2021/06/18 11:36:17;;;;;;;6.07;3.20;;;;;;;34.24;60.43;100325.19;5217577;28;20079;-78
2021/06/18 11:39:11;;;;;;;7.30;3.10;;;;;;;34.24;61.70;100323.34;5217308;28;20048;-79
2021/06/18 11:41:44;;;;;;;9.07;3.20;;;;;;;33.91;59.83;100308.94;5216372;28;20037;-79
2021/06/18 11:44:20;;;;;;;6.68;3.53;;;;;;;34.07;64.98;100322.09;5217093;28;20037;-79
2021/06/18 11:46:52;;;;;;;5.03;3.10;;;;;;;34.20;59.40;100311.22;5215331;28;20040;-79
2021/06/18 11:49:25;;;;;;;4.78;3.30;;;;;;;34.02;60.16;100307.47;5217535;28;20694;-79
2021/06/18 11:52:01;;;;;;;8.20;3.00;;;;;;;33.96;60.10;100306.44;5214521;28;20032;-76
2021/06/18 11:54:36;;;;;;;5.72;3.20;;;;;;;34.24;66.41;100306.19;5216204;28;20021;-78
2021/06/18 11:57:10;;;;;;;6.37;3.33;;;;;;;34.06;67.01;100300.56;5218372;28;20025;-78
2021/06/18 11:59:49;;;;;;;5.17;3.40;;;;;;;34.09;68.78;100300.13;5214577;28;20363;-79